RYR29GX LIME-EBCI
Flight info
| Callsign | RYR29GX |
|---|---|
| Flight time | 1h 21m |
| Altitude | 34000 |
| Route | OMETO DCT AOSTA DCT ORSUD DCT MOLUS DCT GILIR DCT PENDU DCT IXILU DCT GIVOR/N0407F320 DCT SORAL DCT IBERA N853 DIK Y37 BATTY |
| Aircraft | B738/M-SDE3FGHIJ1LRWXY/SB1 |
Departure
| Time | 2026-05-06 15:01 |
|---|---|
| Airport | Il Caravaggio International Airport (LIME) |
Arrival
| Time | 2026-05-06 16:22 |
|---|---|
| Airport | Brussels South Charleroi Airport (EBCI) |
| Time | Latitude | Longitude | Altitude | Speed | Heading |
|---|---|---|---|---|---|
| 2026-05-06 14:28 | 45.66651 | 9.69921 | 786 ft | 0 kts | 195° |
| 2026-05-06 14:41 | 45.66651 | 9.69922 | 786 ft | 0 kts | 195° |
| 2026-05-06 14:51 | 45.66653 | 9.69922 | 786 ft | 2 kts | 195° |
| 2026-05-06 14:51 | 45.66677 | 9.69932 | 786 ft | 4 kts | 198° |
| 2026-05-06 14:52 | 45.66702 | 9.69945 | 786 ft | 4 kts | 204° |
| 2026-05-06 14:52 | 45.66726 | 9.69964 | 786 ft | 4 kts | 218° |
| 2026-05-06 14:52 | 45.66742 | 9.69989 | 786 ft | 4 kts | 265° |
| 2026-05-06 14:52 | 45.66742 | 9.69999 | 786 ft | 0 kts | 285° |
| 2026-05-06 14:57 | 45.66744 | 9.69987 | 786 ft | 4 kts | 285° |
| 2026-05-06 14:58 | 45.66765 | 9.69879 | 786 ft | 18 kts | 284° |
| 2026-05-06 14:58 | 45.66803 | 9.69677 | 786 ft | 24 kts | 285° |
| 2026-05-06 14:58 | 45.66848 | 9.69441 | 786 ft | 24 kts | 285° |
| 2026-05-06 14:58 | 45.66888 | 9.69215 | 786 ft | 23 kts | 284° |
| 2026-05-06 14:59 | 45.66910 | 9.69031 | 786 ft | 17 kts | 275° |
| 2026-05-06 14:59 | 45.66941 | 9.68886 | 786 ft | 13 kts | 324° |
| 2026-05-06 14:59 | 45.67002 | 9.68890 | 786 ft | 9 kts | 15° |
| 2026-05-06 14:59 | 45.67059 | 9.68912 | 786 ft | 9 kts | 17° |
| 2026-05-06 15:00 | 45.67103 | 9.68969 | 786 ft | 11 kts | 101° |
| 2026-05-06 15:00 | 45.67079 | 9.69107 | 786 ft | 31 kts | 105° |
| 2026-05-06 15:00 | 45.66955 | 9.69776 | 786 ft | 105 kts | 105° |
| 2026-05-06 15:00 | 45.66709 | 9.71030 | 985 ft | 145 kts | 108° |
| 2026-05-06 15:01 | 45.66401 | 9.72464 | 1637 ft | 156 kts | 107° |
| 2026-05-06 15:01 | 45.66085 | 9.73982 | 2306 ft | 167 kts | 106° |
| 2026-05-06 15:01 | 45.65758 | 9.75559 | 3002 ft | 169 kts | 116° |
| 2026-05-06 15:01 | 45.64968 | 9.76763 | 3749 ft | 167 kts | 150° |
| 2026-05-06 15:02 | 45.63878 | 9.77302 | 4520 ft | 167 kts | 178° |
| 2026-05-06 15:02 | 45.62702 | 9.77024 | 5001 ft | 186 kts | 203° |
| 2026-05-06 15:02 | 45.61628 | 9.75812 | 5200 ft | 213 kts | 231° |
| 2026-05-06 15:02 | 45.60719 | 9.74050 | 5589 ft | 225 kts | 232° |
| 2026-05-06 15:03 | 45.59773 | 9.72213 | 6227 ft | 231 kts | 232° |
| 2026-05-06 15:03 | 45.58837 | 9.70392 | 7104 ft | 229 kts | 232° |
| 2026-05-06 15:03 | 45.57952 | 9.68479 | 7835 ft | 241 kts | 245° |
| 2026-05-06 15:03 | 45.57768 | 9.65982 | 8190 ft | 270 kts | 274° |
| 2026-05-06 15:04 | 45.58076 | 9.63254 | 9225 ft | 278 kts | 276° |
| 2026-05-06 15:04 | 45.58410 | 9.60556 | 10124 ft | 281 kts | 276° |
| 2026-05-06 15:04 | 45.58752 | 9.57745 | 10649 ft | 299 kts | 276° |
| 2026-05-06 15:04 | 45.59106 | 9.54688 | 10921 ft | 322 kts | 276° |
| 2026-05-06 15:05 | 45.59466 | 9.51478 | 11580 ft | 331 kts | 275° |
| 2026-05-06 15:05 | 45.59823 | 9.48215 | 12457 ft | 334 kts | 275° |
| 2026-05-06 15:05 | 45.60176 | 9.44926 | 13384 ft | 336 kts | 275° |
| 2026-05-06 15:05 | 45.60526 | 9.41603 | 14248 ft | 340 kts | 275° |
| 2026-05-06 15:06 | 45.60873 | 9.38251 | 15075 ft | 344 kts | 275° |
| 2026-05-06 15:06 | 45.61221 | 9.34848 | 15669 ft | 347 kts | 274° |
| 2026-05-06 15:06 | 45.61570 | 9.31415 | 16542 ft | 350 kts | 274° |
| 2026-05-06 15:06 | 45.61920 | 9.27954 | 17391 ft | 354 kts | 274° |
| 2026-05-06 15:07 | 45.62271 | 9.24457 | 18196 ft | 358 kts | 274° |
| 2026-05-06 15:07 | 45.62624 | 9.20925 | 18985 ft | 360 kts | 274° |
| 2026-05-06 15:07 | 45.62979 | 9.17372 | 19784 ft | 361 kts | 273° |
| 2026-05-06 15:07 | 45.63333 | 9.13813 | 20576 ft | 362 kts | 273° |
| 2026-05-06 15:08 | 45.63686 | 9.10244 | 21314 ft | 364 kts | 272° |
| 2026-05-06 15:08 | 45.64041 | 9.06644 | 22068 ft | 367 kts | 272° |
| 2026-05-06 15:08 | 45.64397 | 9.03020 | 22783 ft | 369 kts | 272° |
| 2026-05-06 15:08 | 45.64754 | 8.99371 | 23465 ft | 373 kts | 272° |
| 2026-05-06 15:09 | 45.65112 | 8.95692 | 24011 ft | 376 kts | 271° |
| 2026-05-06 15:09 | 45.65473 | 8.91980 | 24589 ft | 378 kts | 271° |
| 2026-05-06 15:09 | 45.65835 | 8.88249 | 25152 ft | 380 kts | 271° |
| 2026-05-06 15:09 | 45.66198 | 8.84496 | 25685 ft | 382 kts | 271° |
| 2026-05-06 15:10 | 45.66562 | 8.80721 | 26205 ft | 385 kts | 271° |
| 2026-05-06 15:10 | 45.66927 | 8.76914 | 26716 ft | 387 kts | 271° |
| 2026-05-06 15:10 | 45.67294 | 8.73083 | 27227 ft | 390 kts | 270° |
| 2026-05-06 15:10 | 45.67660 | 8.69232 | 27720 ft | 392 kts | 270° |
| 2026-05-06 15:11 | 45.68027 | 8.65366 | 28309 ft | 392 kts | 270° |
| 2026-05-06 15:11 | 45.68393 | 8.61523 | 29084 ft | 388 kts | 270° |
| 2026-05-06 15:11 | 45.68755 | 8.57708 | 29753 ft | 387 kts | 269° |
| 2026-05-06 15:12 | 45.69470 | 8.50062 | 29872 ft | 388 kts | 269° |
| 2026-05-06 15:12 | 45.69826 | 8.46215 | 30154 ft | 391 kts | 269° |
| 2026-05-06 15:12 | 45.70186 | 8.42369 | 30778 ft | 387 kts | 269° |
| 2026-05-06 15:12 | 45.70542 | 8.38582 | 31437 ft | 382 kts | 269° |
| 2026-05-06 15:13 | 45.70889 | 8.34823 | 31958 ft | 381 kts | 269° |
| 2026-05-06 15:13 | 45.71233 | 8.31071 | 32412 ft | 381 kts | 269° |
| 2026-05-06 15:13 | 45.71571 | 8.27308 | 32903 ft | 381 kts | 269° |
| 2026-05-06 15:13 | 45.71904 | 8.23599 | 33390 ft | 381 kts | 269° |
| 2026-05-06 15:14 | 45.72246 | 8.19758 | 33617 ft | 386 kts | 269° |
| 2026-05-06 15:14 | 45.72583 | 8.15991 | 33818 ft | 384 kts | 269° |
| 2026-05-06 15:14 | 45.72926 | 8.12240 | 33842 ft | 379 kts | 269° |
| 2026-05-06 15:15 | 45.73597 | 8.04722 | 33862 ft | 384 kts | 269° |
| 2026-05-06 15:15 | 45.74279 | 7.97093 | 33867 ft | 386 kts | 269° |
| 2026-05-06 15:16 | 45.74947 | 7.89483 | 33873 ft | 385 kts | 269° |
| 2026-05-06 15:16 | 45.75616 | 7.81829 | 33878 ft | 389 kts | 270° |
| 2026-05-06 15:17 | 45.76288 | 7.74103 | 33878 ft | 393 kts | 270° |
| 2026-05-06 15:17 | 45.76958 | 7.66358 | 33887 ft | 394 kts | 270° |
| 2026-05-06 15:18 | 45.77625 | 7.58553 | 33869 ft | 395 kts | 270° |
| 2026-05-06 15:18 | 45.78287 | 7.50764 | 33875 ft | 393 kts | 270° |
| 2026-05-06 15:19 | 45.78940 | 7.43022 | 33871 ft | 389 kts | 270° |
| 2026-05-06 15:19 | 45.80345 | 7.35471 | 33860 ft | 408 kts | 292° |
| 2026-05-06 15:19 | 45.82055 | 7.32162 | 33849 ft | 421 kts | 307° |
| 2026-05-06 15:20 | 45.84369 | 7.29498 | 33870 ft | 430 kts | 317° |
| 2026-05-06 15:20 | 45.89342 | 7.24655 | 33884 ft | 433 kts | 318° |
| 2026-05-06 15:21 | 45.94296 | 7.19698 | 33899 ft | 433 kts | 317° |
| 2026-05-06 15:21 | 45.99224 | 7.14649 | 33932 ft | 435 kts | 317° |
| 2026-05-06 15:22 | 46.04166 | 7.09582 | 33935 ft | 436 kts | 318° |
| 2026-05-06 15:22 | 46.09097 | 7.04522 | 33931 ft | 435 kts | 318° |
| 2026-05-06 15:23 | 46.13985 | 6.99495 | 33930 ft | 433 kts | 317° |
| 2026-05-06 15:23 | 46.18886 | 6.94439 | 33936 ft | 431 kts | 318° |
| 2026-05-06 15:24 | 46.23761 | 6.89401 | 33930 ft | 431 kts | 317° |
| 2026-05-06 15:24 | 46.28641 | 6.84341 | 33940 ft | 432 kts | 317° |
| 2026-05-06 15:25 | 46.33541 | 6.79251 | 33926 ft | 434 kts | 318° |
| 2026-05-06 15:25 | 46.38437 | 6.74158 | 33914 ft | 433 kts | 319° |
| 2026-05-06 15:26 | 46.43319 | 6.69067 | 33930 ft | 432 kts | 319° |
| 2026-05-06 15:26 | 46.48579 | 6.64762 | 33920 ft | 440 kts | 329° |
| 2026-05-06 15:27 | 46.54133 | 6.60973 | 33921 ft | 442 kts | 330° |
| 2026-05-06 15:27 | 46.59707 | 6.57143 | 33910 ft | 443 kts | 329° |
| 2026-05-06 15:28 | 46.65257 | 6.53248 | 33912 ft | 443 kts | 329° |
| 2026-05-06 15:28 | 46.70794 | 6.49324 | 33935 ft | 442 kts | 330° |
| 2026-05-06 15:29 | 46.76306 | 6.45409 | 33923 ft | 439 kts | 330° |
| 2026-05-06 15:29 | 46.81779 | 6.41511 | 33913 ft | 435 kts | 330° |
| 2026-05-06 15:30 | 46.86297 | 6.38287 | 33914 ft | 433 kts | 330° |
| 2026-05-06 15:30 | 46.91707 | 6.34419 | 33901 ft | 432 kts | 330° |
| 2026-05-06 15:31 | 46.97097 | 6.30557 | 33913 ft | 431 kts | 330° |
| 2026-05-06 15:31 | 47.02450 | 6.26712 | 33915 ft | 433 kts | 330° |
| 2026-05-06 15:32 | 47.10572 | 6.20868 | 33895 ft | 435 kts | 330° |
| 2026-05-06 15:32 | 47.16011 | 6.16949 | 33904 ft | 435 kts | 331° |
| 2026-05-06 15:33 | 47.21461 | 6.13011 | 33898 ft | 436 kts | 331° |
| 2026-05-06 15:33 | 47.26912 | 6.09062 | 33885 ft | 436 kts | 331° |
| 2026-05-06 15:34 | 47.32341 | 6.05189 | 33878 ft | 438 kts | 335° |
| 2026-05-06 15:34 | 47.35257 | 6.03856 | 33884 ft | 440 kts | 346° |
| 2026-05-06 15:34 | 47.38334 | 6.03211 | 33879 ft | 442 kts | 356° |
| 2026-05-06 15:35 | 47.44441 | 6.03321 | 33877 ft | 442 kts | 0° |
| 2026-05-06 15:35 | 47.50594 | 6.03578 | 33867 ft | 441 kts | 0° |
| 2026-05-06 15:36 | 47.56720 | 6.03753 | 33870 ft | 440 kts | 359° |
| 2026-05-06 15:36 | 47.62836 | 6.03889 | 33876 ft | 439 kts | 359° |
| 2026-05-06 15:37 | 47.68959 | 6.04024 | 33877 ft | 441 kts | 360° |
| 2026-05-06 15:37 | 47.75092 | 6.04446 | 33856 ft | 443 kts | 9° |
| 2026-05-06 15:38 | 47.81091 | 6.06592 | 33854 ft | 442 kts | 14° |
| 2026-05-06 15:38 | 47.87030 | 6.08941 | 33873 ft | 440 kts | 14° |
| 2026-05-06 15:39 | 47.92955 | 6.11236 | 33865 ft | 440 kts | 14° |
| 2026-05-06 15:39 | 47.98838 | 6.13471 | 33858 ft | 438 kts | 14° |
| 2026-05-06 15:40 | 48.04757 | 6.15709 | 33855 ft | 442 kts | 14° |
| 2026-05-06 15:40 | 48.10733 | 6.17969 | 33867 ft | 443 kts | 14° |
| 2026-05-06 15:41 | 48.16705 | 6.20242 | 33834 ft | 441 kts | 14° |
| 2026-05-06 15:41 | 48.22600 | 6.22490 | 33846 ft | 434 kts | 14° |
| 2026-05-06 15:42 | 48.28449 | 6.24725 | 33851 ft | 432 kts | 14° |
| 2026-05-06 15:42 | 48.34263 | 6.26951 | 33851 ft | 431 kts | 14° |
| 2026-05-06 15:43 | 48.40044 | 6.29170 | 33876 ft | 432 kts | 14° |
| 2026-05-06 15:43 | 48.45916 | 6.31429 | 33847 ft | 437 kts | 14° |
| 2026-05-06 15:44 | 48.51817 | 6.33706 | 33547 ft | 434 kts | 14° |
| 2026-05-06 15:44 | 48.54701 | 6.34820 | 33277 ft | 424 kts | 14° |
| 2026-05-06 15:44 | 48.57541 | 6.35919 | 32908 ft | 419 kts | 14° |
| 2026-05-06 15:45 | 48.60353 | 6.37007 | 32522 ft | 415 kts | 15° |
| 2026-05-06 15:45 | 48.63132 | 6.38084 | 32140 ft | 411 kts | 15° |
| 2026-05-06 15:45 | 48.65897 | 6.39103 | 31850 ft | 405 kts | 11° |
| 2026-05-06 15:45 | 48.68678 | 6.39609 | 31844 ft | 400 kts | 4° |
| 2026-05-06 15:46 | 48.71425 | 6.39875 | 31825 ft | 389 kts | 3° |
| 2026-05-06 15:46 | 48.74089 | 6.40090 | 31812 ft | 377 kts | 3° |
| 2026-05-06 15:46 | 48.76666 | 6.40300 | 31772 ft | 366 kts | 3° |
| 2026-05-06 15:46 | 48.79221 | 6.40523 | 31126 ft | 373 kts | 4° |
| 2026-05-06 15:47 | 48.81849 | 6.40769 | 30119 ft | 392 kts | 4° |
| 2026-05-06 15:47 | 48.84541 | 6.41033 | 29931 ft | 385 kts | 5° |
| 2026-05-06 15:47 | 48.87216 | 6.41300 | 29569 ft | 385 kts | 5° |
| 2026-05-06 15:47 | 48.89906 | 6.41573 | 29287 ft | 388 kts | 5° |
| 2026-05-06 15:48 | 48.92613 | 6.41849 | 29012 ft | 392 kts | 5° |
| 2026-05-06 15:48 | 48.95331 | 6.42126 | 28722 ft | 391 kts | 5° |
| 2026-05-06 15:48 | 48.98038 | 6.42402 | 28452 ft | 387 kts | 5° |
| 2026-05-06 15:48 | 49.00708 | 6.42675 | 28163 ft | 384 kts | 5° |
| 2026-05-06 15:49 | 49.03361 | 6.42945 | 27910 ft | 381 kts | 5° |
| 2026-05-06 15:49 | 49.06004 | 6.43216 | 27620 ft | 380 kts | 5° |
| 2026-05-06 15:49 | 49.08637 | 6.43485 | 27347 ft | 378 kts | 4° |
| 2026-05-06 15:49 | 49.11272 | 6.43545 | 27063 ft | 378 kts | 356° |
| 2026-05-06 15:50 | 49.13851 | 6.42900 | 26799 ft | 376 kts | 345° |
| 2026-05-06 15:50 | 49.16374 | 6.41879 | 26543 ft | 374 kts | 344° |
| 2026-05-06 15:50 | 49.18883 | 6.40808 | 26274 ft | 373 kts | 343° |
| 2026-05-06 15:50 | 49.21379 | 6.39738 | 26002 ft | 371 kts | 344° |
| 2026-05-06 15:51 | 49.23859 | 6.38686 | 25727 ft | 369 kts | 344° |
| 2026-05-06 15:51 | 49.26324 | 6.37653 | 25470 ft | 367 kts | 344° |
| 2026-05-06 15:51 | 49.28783 | 6.36631 | 25214 ft | 366 kts | 344° |
| 2026-05-06 15:51 | 49.31240 | 6.35615 | 24959 ft | 365 kts | 344° |
| 2026-05-06 15:52 | 49.33690 | 6.34603 | 24701 ft | 364 kts | 344° |
| 2026-05-06 15:52 | 49.36143 | 6.33590 | 24446 ft | 363 kts | 344° |
| 2026-05-06 15:52 | 49.38549 | 6.32596 | 24192 ft | 361 kts | 343° |
| 2026-05-06 15:52 | 49.40970 | 6.31593 | 23932 ft | 359 kts | 344° |
| 2026-05-06 15:53 | 49.43375 | 6.30597 | 23674 ft | 355 kts | 344° |
| 2026-05-06 15:53 | 49.45742 | 6.29616 | 23415 ft | 351 kts | 343° |
| 2026-05-06 15:53 | 49.48084 | 6.28644 | 23131 ft | 346 kts | 344° |
| 2026-05-06 15:53 | 49.50401 | 6.27682 | 22860 ft | 344 kts | 344° |
| 2026-05-06 15:54 | 49.52699 | 6.26735 | 22604 ft | 340 kts | 343° |
| 2026-05-06 15:54 | 49.54984 | 6.25800 | 22367 ft | 338 kts | 343° |
| 2026-05-06 15:54 | 49.57253 | 6.24873 | 22129 ft | 339 kts | 343° |
| 2026-05-06 15:54 | 49.59548 | 6.23934 | 21884 ft | 343 kts | 343° |
| 2026-05-06 15:55 | 49.61855 | 6.22989 | 21619 ft | 343 kts | 343° |
| 2026-05-06 15:55 | 49.64157 | 6.22045 | 21356 ft | 341 kts | 343° |
| 2026-05-06 15:55 | 49.66449 | 6.21103 | 21089 ft | 340 kts | 343° |
| 2026-05-06 15:55 | 49.68728 | 6.20166 | 20833 ft | 339 kts | 343° |
| 2026-05-06 15:56 | 49.71005 | 6.19228 | 20569 ft | 337 kts | 343° |
| 2026-05-06 15:56 | 49.73260 | 6.18300 | 20297 ft | 335 kts | 343° |
| 2026-05-06 15:56 | 49.75504 | 6.17374 | 20032 ft | 332 kts | 343° |
| 2026-05-06 15:56 | 49.77728 | 6.16455 | 19803 ft | 329 kts | 343° |
| 2026-05-06 15:57 | 49.79936 | 6.15542 | 19548 ft | 327 kts | 343° |
| 2026-05-06 15:57 | 49.82136 | 6.14633 | 19307 ft | 328 kts | 342° |
| 2026-05-06 15:57 | 49.84345 | 6.13717 | 19070 ft | 329 kts | 342° |
| 2026-05-06 15:57 | 49.86541 | 6.12810 | 18834 ft | 330 kts | 343° |
| 2026-05-06 15:58 | 49.88772 | 6.11978 | 18598 ft | 330 kts | 345° |
| 2026-05-06 15:58 | 49.91044 | 6.11186 | 18353 ft | 329 kts | 345° |
| 2026-05-06 15:58 | 49.93250 | 6.10427 | 18133 ft | 329 kts | 345° |
| 2026-05-06 15:58 | 49.95478 | 6.09661 | 17870 ft | 328 kts | 345° |
| 2026-05-06 15:59 | 49.97703 | 6.08889 | 17594 ft | 326 kts | 345° |
| 2026-05-06 15:59 | 49.99913 | 6.08119 | 17329 ft | 324 kts | 345° |
| 2026-05-06 15:59 | 50.02108 | 6.07350 | 17059 ft | 322 kts | 345° |
| 2026-05-06 15:59 | 50.04285 | 6.06585 | 16800 ft | 321 kts | 344° |
| 2026-05-06 16:00 | 50.06467 | 6.05815 | 16536 ft | 319 kts | 344° |
| 2026-05-06 16:00 | 50.08623 | 6.05053 | 16276 ft | 318 kts | 344° |
| 2026-05-06 16:00 | 50.10777 | 6.04291 | 16019 ft | 316 kts | 344° |
| 2026-05-06 16:00 | 50.12917 | 6.03533 | 15774 ft | 315 kts | 344° |
| 2026-05-06 16:01 | 50.15045 | 6.02778 | 15528 ft | 313 kts | 344° |
| 2026-05-06 16:01 | 50.17165 | 6.02025 | 15280 ft | 312 kts | 344° |
| 2026-05-06 16:01 | 50.19261 | 6.01281 | 15061 ft | 305 kts | 344° |
| 2026-05-06 16:01 | 50.21324 | 6.00547 | 14651 ft | 302 kts | 344° |
| 2026-05-06 16:02 | 50.23372 | 5.99818 | 14247 ft | 301 kts | 344° |
| 2026-05-06 16:02 | 50.25401 | 5.99094 | 13876 ft | 298 kts | 344° |
| 2026-05-06 16:02 | 50.27388 | 5.98385 | 13505 ft | 295 kts | 345° |
| 2026-05-06 16:02 | 50.29366 | 5.97679 | 13194 ft | 289 kts | 345° |
| 2026-05-06 16:03 | 50.31321 | 5.96980 | 12791 ft | 287 kts | 345° |
| 2026-05-06 16:03 | 50.33268 | 5.96283 | 12382 ft | 285 kts | 345° |
| 2026-05-06 16:03 | 50.35194 | 5.95593 | 12007 ft | 283 kts | 346° |
| 2026-05-06 16:03 | 50.37110 | 5.94906 | 11635 ft | 281 kts | 346° |
| 2026-05-06 16:04 | 50.39015 | 5.94223 | 11223 ft | 281 kts | 346° |
| 2026-05-06 16:04 | 50.40905 | 5.93544 | 10885 ft | 277 kts | 346° |
| 2026-05-06 16:04 | 50.42772 | 5.92874 | 10550 ft | 274 kts | 346° |
| 2026-05-06 16:04 | 50.44632 | 5.92205 | 10141 ft | 275 kts | 346° |
| 2026-05-06 16:05 | 50.46487 | 5.91538 | 9798 ft | 272 kts | 347° |
| 2026-05-06 16:05 | 50.48325 | 5.90876 | 9422 ft | 270 kts | 347° |
| 2026-05-06 16:05 | 50.50148 | 5.90219 | 9051 ft | 268 kts | 347° |
| 2026-05-06 16:05 | 50.51951 | 5.89569 | 8731 ft | 264 kts | 347° |
| 2026-05-06 16:06 | 50.53732 | 5.88926 | 8372 ft | 262 kts | 347° |
| 2026-05-06 16:06 | 50.55477 | 5.88296 | 8010 ft | 260 kts | 347° |
| 2026-05-06 16:06 | 50.57243 | 5.87658 | 7928 ft | 264 kts | 347° |
| 2026-05-06 16:06 | 50.59037 | 5.87009 | 7891 ft | 264 kts | 347° |
| 2026-05-06 16:07 | 50.60728 | 5.86020 | 7867 ft | 260 kts | 324° |
| 2026-05-06 16:07 | 50.61827 | 5.83767 | 7892 ft | 265 kts | 295° |
| 2026-05-06 16:07 | 50.62261 | 5.80921 | 7887 ft | 271 kts | 275° |
| 2026-05-06 16:07 | 50.62173 | 5.77941 | 7898 ft | 273 kts | 268° |
| 2026-05-06 16:08 | 50.61971 | 5.74964 | 7874 ft | 273 kts | 266° |
| 2026-05-06 16:08 | 50.61749 | 5.71998 | 7879 ft | 273 kts | 266° |
| 2026-05-06 16:08 | 50.61526 | 5.69034 | 7881 ft | 272 kts | 266° |
| 2026-05-06 16:08 | 50.61308 | 5.66072 | 7895 ft | 273 kts | 266° |
| 2026-05-06 16:09 | 50.61096 | 5.63138 | 7877 ft | 273 kts | 266° |
| 2026-05-06 16:09 | 50.60885 | 5.60174 | 7887 ft | 272 kts | 266° |
| 2026-05-06 16:09 | 50.60677 | 5.57207 | 7892 ft | 273 kts | 266° |
| 2026-05-06 16:09 | 50.60469 | 5.54243 | 7881 ft | 273 kts | 266° |
| 2026-05-06 16:10 | 50.60260 | 5.51269 | 7887 ft | 273 kts | 266° |
| 2026-05-06 16:10 | 50.60051 | 5.48300 | 7885 ft | 273 kts | 266° |
| 2026-05-06 16:10 | 50.59843 | 5.45330 | 7890 ft | 272 kts | 266° |
| 2026-05-06 16:10 | 50.59634 | 5.42374 | 7882 ft | 272 kts | 266° |
| 2026-05-06 16:11 | 50.59426 | 5.39416 | 7891 ft | 272 kts | 266° |
| 2026-05-06 16:11 | 50.59218 | 5.36470 | 7877 ft | 268 kts | 266° |
| 2026-05-06 16:11 | 50.59135 | 5.33608 | 7868 ft | 255 kts | 279° |
| 2026-05-06 16:11 | 50.59431 | 5.30924 | 7872 ft | 244 kts | 283° |
| 2026-05-06 16:12 | 50.59730 | 5.28329 | 7882 ft | 239 kts | 283° |
| 2026-05-06 16:12 | 50.60021 | 5.25764 | 7888 ft | 237 kts | 283° |
| 2026-05-06 16:12 | 50.60307 | 5.23207 | 7895 ft | 238 kts | 282° |
| 2026-05-06 16:12 | 50.60594 | 5.20644 | 7891 ft | 238 kts | 282° |
| 2026-05-06 16:13 | 50.60885 | 5.18075 | 7889 ft | 239 kts | 282° |
| 2026-05-06 16:13 | 50.61179 | 5.15494 | 7884 ft | 239 kts | 283° |
| 2026-05-06 16:13 | 50.61473 | 5.12912 | 7890 ft | 240 kts | 283° |
| 2026-05-06 16:13 | 50.61764 | 5.10329 | 7843 ft | 238 kts | 282° |
| 2026-05-06 16:14 | 50.62052 | 5.07785 | 7589 ft | 235 kts | 282° |
| 2026-05-06 16:14 | 50.62343 | 5.05247 | 7172 ft | 236 kts | 282° |
| 2026-05-06 16:14 | 50.62629 | 5.02733 | 6818 ft | 236 kts | 283° |
| 2026-05-06 16:14 | 50.62911 | 5.00202 | 6487 ft | 234 kts | 283° |
| 2026-05-06 16:15 | 50.63182 | 4.97684 | 6182 ft | 232 kts | 281° |
| 2026-05-06 16:15 | 50.63026 | 4.95159 | 5898 ft | 237 kts | 249° |
| 2026-05-06 16:15 | 50.62008 | 4.93085 | 5909 ft | 247 kts | 223° |
| 2026-05-06 16:15 | 50.61111 | 4.91952 | 5900 ft | 251 kts | 222° |
| 2026-05-06 16:16 | 50.59747 | 4.90220 | 5869 ft | 252 kts | 222° |
| 2026-05-06 16:16 | 50.58467 | 4.88397 | 5766 ft | 243 kts | 238° |
| 2026-05-06 16:16 | 50.57857 | 4.86031 | 5687 ft | 227 kts | 258° |
| 2026-05-06 16:16 | 50.57294 | 4.83759 | 5660 ft | 220 kts | 248° |
| 2026-05-06 16:17 | 50.56611 | 4.81557 | 5388 ft | 225 kts | 248° |
| 2026-05-06 16:17 | 50.55934 | 4.79337 | 5116 ft | 223 kts | 248° |
| 2026-05-06 16:17 | 50.55284 | 4.77147 | 4800 ft | 219 kts | 249° |
| 2026-05-06 16:17 | 50.54652 | 4.74999 | 4490 ft | 213 kts | 249° |
| 2026-05-06 16:18 | 50.54047 | 4.72938 | 4207 ft | 201 kts | 249° |
| 2026-05-06 16:18 | 50.53479 | 4.71000 | 3938 ft | 191 kts | 249° |
| 2026-05-06 16:18 | 50.52933 | 4.69135 | 3677 ft | 185 kts | 250° |
| 2026-05-06 16:18 | 50.52399 | 4.67304 | 3455 ft | 186 kts | 249° |
| 2026-05-06 16:19 | 50.51867 | 4.65483 | 3189 ft | 180 kts | 249° |
| 2026-05-06 16:19 | 50.51357 | 4.63739 | 2944 ft | 174 kts | 249° |
| 2026-05-06 16:19 | 50.50855 | 4.62021 | 2718 ft | 172 kts | 249° |
| 2026-05-06 16:19 | 50.50357 | 4.60314 | 2487 ft | 171 kts | 249° |
| 2026-05-06 16:20 | 50.49879 | 4.58677 | 2253 ft | 164 kts | 250° |
| 2026-05-06 16:20 | 50.49409 | 4.57065 | 2028 ft | 160 kts | 250° |
| 2026-05-06 16:20 | 50.48950 | 4.55489 | 1819 ft | 159 kts | 250° |
| 2026-05-06 16:20 | 50.48489 | 4.53905 | 1630 ft | 158 kts | 250° |
| 2026-05-06 16:21 | 50.48056 | 4.52423 | 1375 ft | 142 kts | 251° |
| 2026-05-06 16:21 | 50.47680 | 4.51064 | 1184 ft | 134 kts | 251° |
| 2026-05-06 16:21 | 50.47292 | 4.49771 | 1017 ft | 129 kts | 248° |
| 2026-05-06 16:21 | 50.46922 | 4.48501 | 838 ft | 129 kts | 246° |
| 2026-05-06 16:22 | 50.46563 | 4.47270 | 669 ft | 130 kts | 244° |
| 2026-05-06 16:22 | 50.46196 | 4.46021 | 592 ft | 116 kts | 245° |
| 2026-05-06 16:22 | 50.45919 | 4.45064 | 592 ft | 74 kts | 246° |
| 2026-05-06 16:22 | 50.45769 | 4.44543 | 597 ft | 31 kts | 246° |
| 2026-05-06 16:23 | 50.45672 | 4.44210 | 593 ft | 26 kts | 245° |
| 2026-05-06 16:23 | 50.45632 | 4.44020 | 593 ft | 14 kts | 291° |
| 2026-05-06 16:23 | 50.45707 | 4.44030 | 593 ft | 13 kts | 48° |
| 2026-05-06 16:23 | 50.45764 | 4.44139 | 595 ft | 13 kts | 50° |
| 2026-05-06 16:24 | 50.45819 | 4.44247 | 598 ft | 12 kts | 53° |
| 2026-05-06 16:24 | 50.45871 | 4.44354 | 598 ft | 12 kts | 53° |
| 2026-05-06 16:24 | 50.45919 | 4.44461 | 599 ft | 12 kts | 59° |
| 2026-05-06 16:24 | 50.45956 | 4.44573 | 599 ft | 12 kts | 65° |
| 2026-05-06 16:25 | 50.45994 | 4.44702 | 596 ft | 14 kts | 65° |
| 2026-05-06 16:25 | 50.46035 | 4.44839 | 596 ft | 14 kts | 65° |
| 2026-05-06 16:25 | 50.46075 | 4.44974 | 595 ft | 14 kts | 65° |
| 2026-05-06 16:25 | 50.46110 | 4.45110 | 596 ft | 13 kts | 66° |
| 2026-05-06 16:26 | 50.46150 | 4.45238 | 598 ft | 13 kts | 64° |
| 2026-05-06 16:26 | 50.46190 | 4.45372 | 598 ft | 15 kts | 65° |
| 2026-05-06 16:26 | 50.46242 | 4.45550 | 599 ft | 22 kts | 65° |
| 2026-05-06 16:26 | 50.46323 | 4.45823 | 596 ft | 32 kts | 65° |
| 2026-05-06 16:27 | 50.46417 | 4.46148 | 590 ft | 34 kts | 65° |
| 2026-05-06 16:27 | 50.46511 | 4.46470 | 588 ft | 33 kts | 65° |
| 2026-05-06 16:27 | 50.46589 | 4.46739 | 590 ft | 9 kts | 66° |
| 2026-05-06 16:27 | 50.46635 | 4.46797 | 590 ft | 9 kts | 1° |
| 2026-05-06 16:28 | 50.46702 | 4.46794 | 588 ft | 11 kts | 41° |
| 2026-05-06 16:28 | 50.46735 | 4.46904 | 587 ft | 12 kts | 66° |
| 2026-05-06 16:28 | 50.46770 | 4.47027 | 586 ft | 12 kts | 68° |
| 2026-05-06 16:28 | 50.46791 | 4.47078 | 585 ft | 5 kts | 20° |
| 2026-05-06 16:29 | 50.46838 | 4.47054 | 584 ft | 6 kts | 335° |
| 2026-05-06 16:29 | 50.46849 | 4.47046 | 584 ft | 4 kts | 335° |
| 2026-05-06 16:29 | 50.46856 | 4.47042 | 584 ft | 0 kts | 335° |